sensor_id;sensor_type;location;lat;lon;timestamp;pressure;altitude;pressure_sealevel;temperature;humidity
40946;BME280;55635;50.264;11.918;2023-02-28T00:00:22;96594.56;;;0.06;67.47
40946;BME280;55635;50.264;11.918;2023-02-28T00:03:03;96594.56;;;0.06;67.77
40946;BME280;55635;50.264;11.918;2023-02-28T00:05:44;96589.25;;;0.07;67.90
40946;BME280;55635;50.264;11.918;2023-02-28T00:08:25;96589.03;;;0.10;67.91
40946;BME280;55635;50.264;11.918;2023-02-28T00:11:10;96584.19;;;0.18;67.20
40946;BME280;55635;50.264;11.918;2023-02-28T00:13:52;96590.41;;;0.16;67.48
40946;BME280;55635;50.264;11.918;2023-02-28T00:16:33;96589.59;;;0.15;68.52
40946;BME280;55635;50.264;11.918;2023-02-28T00:19:14;96592.84;;;0.19;67.57
40946;BME280;55635;50.264;11.918;2023-02-28T00:21:55;96592.44;;;0.25;67.75
40946;BME280;55635;50.264;11.918;2023-02-28T00:24:36;96584.72;;;0.23;67.36
40946;BME280;55635;50.264;11.918;2023-02-28T00:27:17;96583.81;;;0.24;67.67
40946;BME280;55635;50.264;11.918;2023-02-28T00:30:00;96563.34;;;0.18;67.34
40946;BME280;55635;50.264;11.918;2023-02-28T00:32:42;96587.28;;;0.37;66.73
40946;BME280;55635;50.264;11.918;2023-02-28T00:35:23;96583.00;;;0.36;67.04
40946;BME280;55635;50.264;11.918;2023-02-28T00:38:04;96582.66;;;0.28;67.30
40946;BME280;55635;50.264;11.918;2023-02-28T00:40:45;96575.34;;;0.21;67.72
40946;BME280;55635;50.264;11.918;2023-02-28T00:43:26;96588.81;;;0.27;67.52
40946;BME280;55635;50.264;11.918;2023-02-28T00:46:08;96587.78;;;0.30;67.37
40946;BME280;55635;50.264;11.918;2023-02-28T00:48:49;96589.34;;;0.32;66.86
40946;BME280;55635;50.264;11.918;2023-02-28T00:51:30;96585.63;;;0.36;66.18
40946;BME280;55635;50.264;11.918;2023-02-28T00:54:12;96587.47;;;0.34;67.19
40946;BME280;55635;50.264;11.918;2023-02-28T00:56:53;96582.91;;;0.38;67.12
40946;BME280;55635;50.264;11.918;2023-02-28T00:59:34;96582.63;;;0.42;66.16
40946;BME280;55635;50.264;11.918;2023-02-28T01:02:15;96579.75;;;0.33;66.78
40946;BME280;55635;50.264;11.918;2023-02-28T01:04:57;96576.63;;;0.40;66.59
40946;BME280;55635;50.264;11.918;2023-02-28T01:07:38;96567.41;;;0.22;66.36
40946;BME280;55635;50.264;11.918;2023-02-28T01:10:19;96579.72;;;0.20;67.20
40946;BME280;55635;50.264;11.918;2023-02-28T01:13:02;96579.91;;;0.17;67.27
40946;BME280;55635;50.264;11.918;2023-02-28T01:15:51;96576.19;;;0.21;66.81
40946;BME280;55635;50.264;11.918;2023-02-28T01:18:33;96575.72;;;0.15;66.98
40946;BME280;55635;50.264;11.918;2023-02-28T01:21:17;96571.56;;;0.12;66.99
40946;BME280;55635;50.264;11.918;2023-02-28T01:23:59;96563.50;;;0.03;67.37
40946;BME280;55635;50.264;11.918;2023-02-28T01:26:40;96562.09;;;-0.03;67.31
40946;BME280;55635;50.264;11.918;2023-02-28T01:29:22;96552.63;;;-0.04;67.10
40946;BME280;55635;50.264;11.918;2023-02-28T01:32:03;96561.28;;;-0.04;66.68
40946;BME280;55635;50.264;11.918;2023-02-28T01:34:45;96561.28;;;-0.18;67.37
40946;BME280;55635;50.264;11.918;2023-02-28T01:37:26;96556.84;;;-0.16;66.65
40946;BME280;55635;50.264;11.918;2023-02-28T01:40:08;96557.41;;;-0.25;66.96
40946;BME280;55635;50.264;11.918;2023-02-28T01:42:49;96548.78;;;-0.39;67.35
40946;BME280;55635;50.264;11.918;2023-02-28T01:45:31;96553.16;;;-0.54;68.59
40946;BME280;55635;50.264;11.918;2023-02-28T01:48:18;96535.13;;;-0.57;67.34
40946;BME280;55635;50.264;11.918;2023-02-28T01:51:06;96534.38;;;-0.45;67.84
40946;BME280;55635;50.264;11.918;2023-02-28T01:53:56;96533.19;;;-0.53;67.62
40946;BME280;55635;50.264;11.918;2023-02-28T01:56:46;96527.06;;;-0.52;67.41
40946;BME280;55635;50.264;11.918;2023-02-28T01:59:43;96534.38;;;-0.45;66.59
40946;BME280;55635;50.264;11.918;2023-02-28T02:02:32;96522.41;;;-0.62;66.85
40946;BME280;55635;50.264;11.918;2023-02-28T02:05:21;96518.59;;;-0.70;67.00
40946;BME280;55635;50.264;11.918;2023-02-28T02:08:06;96519.69;;;-0.60;67.61
40946;BME280;55635;50.264;11.918;2023-02-28T02:11:01;96523.53;;;-0.66;67.78
40946;BME280;55635;50.264;11.918;2023-02-28T02:25:41;96524.16;;;-0.76;66.74
40946;BME280;55635;50.264;11.918;2023-02-28T02:35:26;96518.16;;;-0.91;67.19
40946;BME280;55635;50.264;11.918;2023-02-28T02:41:31;96528.09;;;-1.12;67.76
40946;BME280;55635;50.264;11.918;2023-02-28T02:44:29;96526.03;;;-1.06;67.53
40946;BME280;55635;50.264;11.918;2023-02-28T02:47:18;96527.91;;;-1.08;67.78
40946;BME280;55635;50.264;11.918;2023-02-28T02:50:05;96527.97;;;-1.10;67.79
40946;BME280;55635;50.264;11.918;2023-02-28T02:52:54;96529.66;;;-1.09;67.99
40946;BME280;55635;50.264;11.918;2023-02-28T02:55:42;96527.00;;;-1.07;67.75
40946;BME280;55635;50.264;11.918;2023-02-28T02:58:30;96523.72;;;-1.11;68.03
40946;BME280;55635;50.264;11.918;2023-02-28T03:01:20;96520.91;;;-1.22;68.84
40946;BME280;55635;50.264;11.918;2023-02-28T03:04:16;96535.97;;;-1.13;68.70
40946;BME280;55635;50.264;11.918;2023-02-28T03:06:57;96540.38;;;-1.14;68.63
40946;BME280;55635;50.264;11.918;2023-02-28T03:09:39;96538.03;;;-1.18;69.21
40946;BME280;55635;50.264;11.918;2023-02-28T03:12:24;96534.88;;;-1.23;70.15
40946;BME280;55635;50.264;11.918;2023-02-28T03:15:36;96537.47;;;-1.09;69.78
40946;BME280;55635;50.264;11.918;2023-02-28T03:36:51;96529.97;;;-1.14;70.16
40946;BME280;55635;50.264;11.918;2023-02-28T03:39:44;96546.13;;;-1.23;70.21
40946;BME280;55635;50.264;11.918;2023-02-28T03:42:29;96546.38;;;-1.13;69.63
40946;BME280;55635;50.264;11.918;2023-02-28T03:45:21;96548.09;;;-0.98;69.53
40946;BME280;55635;50.264;11.918;2023-02-28T03:48:56;96550.88;;;-0.87;69.07
40946;BME280;55635;50.264;11.918;2023-02-28T03:51:42;96542.31;;;-1.17;69.53
40946;BME280;55635;50.264;11.918;2023-02-28T03:54:32;96545.81;;;-1.04;69.50
40946;BME280;55635;50.264;11.918;2023-02-28T03:57:54;96549.84;;;-0.98;69.76
40946;BME280;55635;50.264;11.918;2023-02-28T04:00:43;96532.44;;;-1.12;69.35
40946;BME280;55635;50.264;11.918;2023-02-28T04:03:26;96555.59;;;-1.07;69.45
40946;BME280;55635;50.264;11.918;2023-02-28T04:06:15;96551.13;;;-1.20;71.30
40946;BME280;55635;50.264;11.918;2023-02-28T04:08:57;96554.81;;;-1.38;71.07
40946;BME280;55635;50.264;11.918;2023-02-28T04:11:45;96550.06;;;-1.45;71.12
40946;BME280;55635;50.264;11.918;2023-02-28T04:14:29;96560.84;;;-1.37;70.69
40946;BME280;55635;50.264;11.918;2023-02-28T04:17:10;96559.44;;;-1.43;71.75
40946;BME280;55635;50.264;11.918;2023-02-28T04:19:51;96545.88;;;-1.48;70.39
40946;BME280;55635;50.264;11.918;2023-02-28T04:22:32;96559.72;;;-1.33;69.95
40946;BME280;55635;50.264;11.918;2023-02-28T04:25:13;96563.00;;;-1.30;69.92
40946;BME280;55635;50.264;11.918;2023-02-28T04:27:55;96557.69;;;-1.42;69.87
40946;BME280;55635;50.264;11.918;2023-02-28T04:30:37;96559.31;;;-1.55;69.94
40946;BME280;55635;50.264;11.918;2023-02-28T04:33:18;96557.66;;;-1.56;70.42
40946;BME280;55635;50.264;11.918;2023-02-28T04:36:07;96560.66;;;-1.34;69.18
40946;BME280;55635;50.264;11.918;2023-02-28T04:38:49;96569.47;;;-1.37;69.01
40946;BME280;55635;50.264;11.918;2023-02-28T04:41:31;96563.53;;;-1.39;68.35
40946;BME280;55635;50.264;11.918;2023-02-28T04:44:12;96558.59;;;-1.43;68.38
40946;BME280;55635;50.264;11.918;2023-02-28T04:46:53;96556.75;;;-1.41;67.92
40946;BME280;55635;50.264;11.918;2023-02-28T04:49:35;96566.97;;;-1.38;67.97
40946;BME280;55635;50.264;11.918;2023-02-28T04:52:16;96563.59;;;-1.40;68.49
40946;BME280;55635;50.264;11.918;2023-02-28T04:54:57;96567.59;;;-1.49;68.66
40946;BME280;55635;50.264;11.918;2023-02-28T04:57:38;96562.31;;;-1.47;68.69
40946;BME280;55635;50.264;11.918;2023-02-28T05:00:19;96569.28;;;-1.48;68.90
40946;BME280;55635;50.264;11.918;2023-02-28T05:03:00;96565.84;;;-1.48;68.97
40946;BME280;55635;50.264;11.918;2023-02-28T05:05:42;96580.66;;;-1.35;69.05
40946;BME280;55635;50.264;11.918;2023-02-28T05:08:23;96578.59;;;-1.30;69.26
40946;BME280;55635;50.264;11.918;2023-02-28T05:11:15;96575.34;;;-1.19;68.56
40946;BME280;55635;50.264;11.918;2023-02-28T05:13:57;96579.94;;;-1.23;68.89
40946;BME280;55635;50.264;11.918;2023-02-28T05:16:38;96585.31;;;-1.12;69.30
40946;BME280;55635;50.264;11.918;2023-02-28T05:19:19;96586.34;;;-1.00;68.39
40946;BME280;55635;50.264;11.918;2023-02-28T05:22:02;96584.97;;;-1.05;68.80
40946;BME280;55635;50.264;11.918;2023-02-28T05:24:43;96584.22;;;-1.07;69.68
40946;BME280;55635;50.264;11.918;2023-02-28T05:27:24;96581.53;;;-1.06;69.88
40946;BME280;55635;50.264;11.918;2023-02-28T05:30:06;96580.00;;;-1.10;70.28
40946;BME280;55635;50.264;11.918;2023-02-28T05:32:51;96585.22;;;-1.10;70.51
40946;BME280;55635;50.264;11.918;2023-02-28T05:35:33;96579.81;;;-1.21;71.09
40946;BME280;55635;50.264;11.918;2023-02-28T05:38:14;96587.00;;;-1.11;71.26
40946;BME280;55635;50.264;11.918;2023-02-28T05:40:55;96578.81;;;-1.19;71.13
40946;BME280;55635;50.264;11.918;2023-02-28T05:43:37;96583.16;;;-1.19;71.63
40946;BME280;55635;50.264;11.918;2023-02-28T05:46:19;96582.44;;;-1.21;72.25
40946;BME280;55635;50.264;11.918;2023-02-28T05:49:00;96587.81;;;-1.10;71.75
40946;BME280;55635;50.264;11.918;2023-02-28T05:51:42;96583.53;;;-1.25;72.24
40946;BME280;55635;50.264;11.918;2023-02-28T05:54:22;96585.03;;;-1.21;72.19
40946;BME280;55635;50.264;11.918;2023-02-28T05:57:04;96587.81;;;-1.10;71.56
40946;BME280;55635;50.264;11.918;2023-02-28T05:59:45;96584.13;;;-1.06;72.14
40946;BME280;55635;50.264;11.918;2023-02-28T06:02:26;96591.19;;;-1.08;72.42
40946;BME280;55635;50.264;11.918;2023-02-28T06:05:15;96584.69;;;-1.01;71.84
40946;BME280;55635;50.264;11.918;2023-02-28T06:07:56;96593.44;;;-1.02;71.99
40946;BME280;55635;50.264;11.918;2023-02-28T06:10:37;96590.72;;;-1.00;72.14
40946;BME280;55635;50.264;11.918;2023-02-28T06:13:19;96612.41;;;-0.86;71.93
40946;BME280;55635;50.264;11.918;2023-02-28T06:16:02;96606.19;;;-0.83;71.64
40946;BME280;55635;50.264;11.918;2023-02-28T06:18:44;96614.66;;;-0.80;72.02
40946;BME280;55635;50.264;11.918;2023-02-28T06:21:25;96615.69;;;-0.68;71.95
40946;BME280;55635;50.264;11.918;2023-02-28T06:24:08;96605.44;;;-0.71;71.23
40946;BME280;55635;50.264;11.918;2023-02-28T06:26:49;96606.84;;;-0.66;71.34
40946;BME280;55635;50.264;11.918;2023-02-28T06:29:34;96611.75;;;-0.61;71.21
40946;BME280;55635;50.264;11.918;2023-02-28T06:32:15;96608.22;;;-0.60;71.22
40946;BME280;55635;50.264;11.918;2023-02-28T06:34:57;96619.75;;;-0.64;70.95
40946;BME280;55635;50.264;11.918;2023-02-28T06:37:39;96614.53;;;-0.64;71.61
40946;BME280;55635;50.264;11.918;2023-02-28T06:40:20;96620.59;;;-0.49;71.22
40946;BME280;55635;50.264;11.918;2023-02-28T06:43:01;96627.88;;;-0.40;71.69
40946;BME280;55635;50.264;11.918;2023-02-28T06:45:43;96628.41;;;-0.35;71.09
40946;BME280;55635;50.264;11.918;2023-02-28T06:48:26;96621.78;;;-0.27;71.41
40946;BME280;55635;50.264;11.918;2023-02-28T06:51:11;96625.59;;;-0.18;70.58
40946;BME280;55635;50.264;11.918;2023-02-28T06:53:54;96634.91;;;0.00;69.91
40946;BME280;55635;50.264;11.918;2023-02-28T06:56:35;96623.13;;;0.07;70.04
40946;BME280;55635;50.264;11.918;2023-02-28T06:59:16;96629.06;;;0.23;69.47
40946;BME280;55635;50.264;11.918;2023-02-28T07:01:58;96632.38;;;0.39;69.78
40946;BME280;55635;50.264;11.918;2023-02-28T07:04:39;96638.84;;;1.25;69.38
40946;BME280;55635;50.264;11.918;2023-02-28T07:07:21;96627.75;;;2.08;69.34
40946;BME280;55635;50.264;11.918;2023-02-28T07:10:02;96611.91;;;2.94;65.29
40946;BME280;55635;50.264;11.918;2023-02-28T07:12:43;96622.31;;;3.74;64.14
40946;BME280;55635;50.264;11.918;2023-02-28T07:15:25;96622.28;;;4.73;61.38
40946;BME280;55635;50.264;11.918;2023-02-28T07:18:05;96610.34;;;5.42;57.26
40946;BME280;55635;50.264;11.918;2023-02-28T07:20:46;96614.31;;;6.08;54.23
40946;BME280;55635;50.264;11.918;2023-02-28T07:23:27;96608.53;;;6.92;53.55
40946;BME280;55635;50.264;11.918;2023-02-28T07:26:15;96606.75;;;7.68;53.83
40946;BME280;55635;50.264;11.918;2023-02-28T07:28:56;96606.78;;;8.05;48.65
40946;BME280;55635;50.264;11.918;2023-02-28T07:31:37;96606.06;;;8.12;47.81
40946;BME280;55635;50.264;11.918;2023-02-28T07:34:18;96608.97;;;8.29;46.26
40946;BME280;55635;50.264;11.918;2023-02-28T07:36:59;96589.69;;;7.62;45.66
40946;BME280;55635;50.264;11.918;2023-02-28T07:39:40;96605.53;;;7.62;45.95
40946;BME280;55635;50.264;11.918;2023-02-28T07:42:24;96610.25;;;7.59;45.26
40946;BME280;55635;50.264;11.918;2023-02-28T07:45:07;96608.16;;;7.72;44.98
40946;BME280;55635;50.264;11.918;2023-02-28T07:47:48;96623.91;;;7.45;44.64
40946;BME280;55635;50.264;11.918;2023-02-28T07:50:29;96617.78;;;7.54;44.58
40946;BME280;55635;50.264;11.918;2023-02-28T07:53:11;96614.63;;;7.87;44.38
40946;BME280;55635;50.264;11.918;2023-02-28T07:55:56;96613.25;;;8.30;42.84
40946;BME280;55635;50.264;11.918;2023-02-28T07:58:37;96607.78;;;8.04;42.00
40946;BME280;55635;50.264;11.918;2023-02-28T08:01:17;96614.94;;;7.84;43.36
40946;BME280;55635;50.264;11.918;2023-02-28T08:04:00;96612.03;;;7.68;42.77
40946;BME280;55635;50.264;11.918;2023-02-28T08:06:41;96610.75;;;7.91;42.47
40946;BME280;55635;50.264;11.918;2023-02-28T08:09:22;96611.94;;;8.06;42.16
40946;BME280;55635;50.264;11.918;2023-02-28T08:12:03;96609.06;;;8.27;40.98
40946;BME280;55635;50.264;11.918;2023-02-28T08:14:44;96607.78;;;8.41;41.99
40946;BME280;55635;50.264;11.918;2023-02-28T08:17:25;96604.22;;;8.77;40.87
40946;BME280;55635;50.264;11.918;2023-02-28T08:20:07;96599.81;;;8.68;40.83
40946;BME280;55635;50.264;11.918;2023-02-28T08:22:49;96596.72;;;8.18;41.35
40946;BME280;55635;50.264;11.918;2023-02-28T08:25:30;96606.69;;;8.34;40.30
40946;BME280;55635;50.264;11.918;2023-02-28T08:28:11;96606.63;;;9.06;40.60
40946;BME280;55635;50.264;11.918;2023-02-28T08:30:52;96611.72;;;9.17;39.82
40946;BME280;55635;50.264;11.918;2023-02-28T08:33:33;96606.56;;;8.98;39.31
40946;BME280;55635;50.264;11.918;2023-02-28T08:36:14;96604.81;;;8.89;39.88
40946;BME280;55635;50.264;11.918;2023-02-28T08:38:57;96603.84;;;9.07;40.03
40946;BME280;55635;50.264;11.918;2023-02-28T08:41:38;96600.91;;;8.93;39.40
40946;BME280;55635;50.264;11.918;2023-02-28T08:44:19;96594.81;;;9.18;38.71
40946;BME280;55635;50.264;11.918;2023-02-28T08:47:00;96615.13;;;9.78;38.55
40946;BME280;55635;50.264;11.918;2023-02-28T08:49:41;96609.31;;;10.01;37.91
40946;BME280;55635;50.264;11.918;2023-02-28T08:52:22;96611.25;;;9.65;38.64
40946;BME280;55635;50.264;11.918;2023-02-28T08:55:03;96604.72;;;10.03;37.59
40946;BME280;55635;50.264;11.918;2023-02-28T08:57:44;96602.41;;;10.33;36.73
40946;BME280;55635;50.264;11.918;2023-02-28T09:00:25;96604.50;;;9.96;36.82
40946;BME280;55635;50.264;11.918;2023-02-28T09:03:07;96603.41;;;10.41;37.29
40946;BME280;55635;50.264;11.918;2023-02-28T09:06:00;96603.47;;;9.89;36.63
40946;BME280;55635;50.264;11.918;2023-02-28T09:08:41;96602.50;;;9.90;37.05
40946;BME280;55635;50.264;11.918;2023-02-28T09:11:22;96607.19;;;10.30;37.29
40946;BME280;55635;50.264;11.918;2023-02-28T09:14:03;96603.81;;;10.54;36.67
40946;BME280;55635;50.264;11.918;2023-02-28T09:16:44;96617.03;;;9.43;36.83
40946;BME280;55635;50.264;11.918;2023-02-28T09:19:25;96618.78;;;8.81;37.79
40946;BME280;55635;50.264;11.918;2023-02-28T09:22:06;96611.66;;;8.09;39.41
40946;BME280;55635;50.264;11.918;2023-02-28T09:24:47;96613.19;;;8.02;39.65
40946;BME280;55635;50.264;11.918;2023-02-28T09:27:28;96599.56;;;8.07;39.87
40946;BME280;55635;50.264;11.918;2023-02-28T09:30:09;96622.25;;;8.00;39.73
40946;BME280;55635;50.264;11.918;2023-02-28T09:32:50;96614.59;;;7.97;40.41
40946;BME280;55635;50.264;11.918;2023-02-28T09:35:32;96625.81;;;8.08;40.40
40946;BME280;55635;50.264;11.918;2023-02-28T09:38:13;96609.66;;;7.09;40.92
40946;BME280;55635;50.264;11.918;2023-02-28T09:41:01;96628.22;;;7.46;40.88
40946;BME280;55635;50.264;11.918;2023-02-28T09:43:47;96618.50;;;6.60;41.25
40946;BME280;55635;50.264;11.918;2023-02-28T09:46:38;96626.41;;;6.98;41.72
40946;BME280;55635;50.264;11.918;2023-02-28T09:49:25;96623.59;;;7.67;41.05
40946;BME280;55635;50.264;11.918;2023-02-28T09:52:38;96633.53;;;9.01;38.83
40946;BME280;55635;50.264;11.918;2023-02-28T09:58:49;96622.00;;;9.20;38.47
40946;BME280;55635;50.264;11.918;2023-02-28T10:08:13;96619.97;;;7.68;40.59
40946;BME280;55635;50.264;11.918;2023-02-28T10:11:01;96593.88;;;8.02;39.90
40946;BME280;55635;50.264;11.918;2023-02-28T10:14:02;96614.94;;;7.84;40.26
40946;BME280;55635;50.264;11.918;2023-02-28T10:16:56;96628.38;;;8.64;39.09
40946;BME280;55635;50.264;11.918;2023-02-28T10:20:04;96626.72;;;9.34;38.58
40946;BME280;55635;50.264;11.918;2023-02-28T10:26:20;96598.84;;;10.17;36.96
40946;BME280;55635;50.264;11.918;2023-02-28T10:29:01;96603.38;;;10.82;36.61
40946;BME280;55635;50.264;11.918;2023-02-28T10:31:43;96600.06;;;10.72;36.93
40946;BME280;55635;50.264;11.918;2023-02-28T10:34:24;96595.78;;;10.87;36.24
40946;BME280;55635;50.264;11.918;2023-02-28T10:37:05;96598.97;;;11.31;35.68
40946;BME280;55635;50.264;11.918;2023-02-28T10:39:50;96597.16;;;11.72;35.10
40946;BME280;55635;50.264;11.918;2023-02-28T10:42:32;96587.69;;;11.62;34.24
40946;BME280;55635;50.264;11.918;2023-02-28T10:45:16;96594.16;;;11.59;34.81
40946;BME280;55635;50.264;11.918;2023-02-28T10:48:34;96592.34;;;11.43;34.85
40946;BME280;55635;50.264;11.918;2023-02-28T10:51:19;96596.66;;;11.36;35.32
40946;BME280;55635;50.264;11.918;2023-02-28T10:54:00;96585.53;;;11.57;35.33
40946;BME280;55635;50.264;11.918;2023-02-28T10:56:40;96592.50;;;11.66;34.62
40946;BME280;55635;50.264;11.918;2023-02-28T10:59:30;96576.38;;;11.84;34.48
40946;BME280;55635;50.264;11.918;2023-02-28T11:02:34;96587.38;;;11.73;34.71
40946;BME280;55635;50.264;11.918;2023-02-28T11:05:32;96578.34;;;12.06;35.23
40946;BME280;55635;50.264;11.918;2023-02-28T11:08:17;96578.00;;;12.09;33.75
40946;BME280;55635;50.264;11.918;2023-02-28T11:11:04;96575.88;;;12.05;35.17
40946;BME280;55635;50.264;11.918;2023-02-28T11:13:50;96582.78;;;12.22;34.39
40946;BME280;55635;50.264;11.918;2023-02-28T11:16:35;96578.03;;;11.93;33.92
40946;BME280;55635;50.264;11.918;2023-02-28T11:19:30;96576.03;;;11.87;34.92
40946;BME280;55635;50.264;11.918;2023-02-28T11:22:27;96578.13;;;12.16;34.28
40946;BME280;55635;50.264;11.918;2023-02-28T11:25:22;96574.53;;;12.47;34.21
40946;BME280;55635;50.264;11.918;2023-02-28T11:28:23;96573.94;;;12.68;34.46
40946;BME280;55635;50.264;11.918;2023-02-28T11:31:16;96575.47;;;12.93;33.14
40946;BME280;55635;50.264;11.918;2023-02-28T11:33:59;96570.94;;;12.94;32.89
40946;BME280;55635;50.264;11.918;2023-02-28T11:36:40;96578.50;;;12.51;33.43
40946;BME280;55635;50.264;11.918;2023-02-28T11:39:26;96561.59;;;12.44;33.41
40946;BME280;55635;50.264;11.918;2023-02-28T11:42:19;96566.84;;;13.14;33.77
40946;BME280;55635;50.264;11.918;2023-02-28T11:55:00;96554.75;;;12.81;32.72
40946;BME280;55635;50.264;11.918;2023-02-28T11:58:14;96556.03;;;13.07;33.24
40946;BME280;55635;50.264;11.918;2023-02-28T12:10:27;96548.16;;;11.75;34.00
40946;BME280;55635;50.264;11.918;2023-02-28T12:24:01;96543.25;;;11.15;33.90
40946;BME280;55635;50.264;11.918;2023-02-28T12:26:46;96530.94;;;10.90;35.04
40946;BME280;55635;50.264;11.918;2023-02-28T12:29:39;96535.94;;;11.33;34.70
40946;BME280;55635;50.264;11.918;2023-02-28T12:32:42;96528.59;;;10.55;35.79
40946;BME280;55635;50.264;11.918;2023-02-28T12:35:37;96540.03;;;10.13;34.89
40946;BME280;55635;50.264;11.918;2023-02-28T12:38:23;96540.41;;;11.25;34.91
40946;BME280;55635;50.264;11.918;2023-02-28T12:41:35;96538.59;;;11.17;34.99
40946;BME280;55635;50.264;11.918;2023-02-28T12:44:37;96531.41;;;11.58;34.26
40946;BME280;55635;50.264;11.918;2023-02-28T12:47:20;96526.78;;;11.36;34.63
40946;BME280;55635;50.264;11.918;2023-02-28T12:50:10;96524.25;;;11.83;34.28
40946;BME280;55635;50.264;11.918;2023-02-28T12:53:11;96531.25;;;11.76;34.24
40946;BME280;55635;50.264;11.918;2023-02-28T12:56:34;96526.41;;;11.63;33.37
40946;BME280;55635;50.264;11.918;2023-02-28T12:59:24;96524.06;;;11.68;34.31
40946;BME280;55635;50.264;11.918;2023-02-28T13:11:29;96525.66;;;12.10;34.30
40946;BME280;55635;50.264;11.918;2023-02-28T13:17:21;96516.53;;;11.25;33.47
40946;BME280;55635;50.264;11.918;2023-02-28T13:23:01;96525.97;;;11.27;35.01
40946;BME280;55635;50.264;11.918;2023-02-28T13:37:36;96516.47;;;11.57;32.90
40946;BME280;55635;50.264;11.918;2023-02-28T13:40:33;96519.03;;;11.18;34.47
40946;BME280;55635;50.264;11.918;2023-02-28T13:43:18;96525.81;;;11.37;34.18
40946;BME280;55635;50.264;11.918;2023-02-28T13:46:12;96510.50;;;11.55;34.09
40946;BME280;55635;50.264;11.918;2023-02-28T13:48:53;96511.13;;;11.65;34.55
40946;BME280;55635;50.264;11.918;2023-02-28T13:51:43;96507.19;;;11.61;34.38
40946;BME280;55635;50.264;11.918;2023-02-28T14:05:00;96476.06;;;10.99;35.89
40946;BME280;55635;50.264;11.918;2023-02-28T14:07:50;96494.91;;;11.52;36.69
40946;BME280;55635;50.264;11.918;2023-02-28T14:10:41;96498.41;;;11.44;34.85
40946;BME280;55635;50.264;11.918;2023-02-28T14:13:46;96501.41;;;11.41;35.07
40946;BME280;55635;50.264;11.918;2023-02-28T14:16:44;96495.06;;;11.59;36.86
40946;BME280;55635;50.264;11.918;2023-02-28T14:19:30;96504.63;;;11.84;37.16
40946;BME280;55635;50.264;11.918;2023-02-28T14:25:59;96488.91;;;11.66;37.57
40946;BME280;55635;50.264;11.918;2023-02-28T14:31:53;96482.78;;;10.28;39.39
40946;BME280;55635;50.264;11.918;2023-02-28T14:35:18;96487.38;;;10.18;39.43
40946;BME280;55635;50.264;11.918;2023-02-28T14:38:05;96485.00;;;10.07;40.21
40946;BME280;55635;50.264;11.918;2023-02-28T14:40:49;96483.19;;;10.08;40.35
40946;BME280;55635;50.264;11.918;2023-02-28T14:43:32;96500.19;;;9.97;40.45
40946;BME280;55635;50.264;11.918;2023-02-28T14:46:13;96497.38;;;9.91;40.54
40946;BME280;55635;50.264;11.918;2023-02-28T14:48:54;96497.75;;;9.70;40.50
40946;BME280;55635;50.264;11.918;2023-02-28T14:51:36;96495.38;;;9.33;41.12
40946;BME280;55635;50.264;11.918;2023-02-28T14:54:21;96496.88;;;9.10;41.83
40946;BME280;55635;50.264;11.918;2023-02-28T14:57:05;96494.19;;;8.84;42.52
40946;BME280;55635;50.264;11.918;2023-02-28T14:59:46;96505.38;;;8.78;42.75
40946;BME280;55635;50.264;11.918;2023-02-28T15:02:36;96500.56;;;8.56;43.04
40946;BME280;55635;50.264;11.918;2023-02-28T15:05:29;96497.84;;;8.83;42.97
40946;BME280;55635;50.264;11.918;2023-02-28T15:08:17;96493.84;;;8.79;43.04
40946;BME280;55635;50.264;11.918;2023-02-28T15:11:00;96493.91;;;8.34;44.43
40946;BME280;55635;50.264;11.918;2023-02-28T15:13:43;96501.25;;;8.40;43.92
40946;BME280;55635;50.264;11.918;2023-02-28T15:16:41;96502.44;;;8.01;44.81
40946;BME280;55635;50.264;11.918;2023-02-28T15:19:30;96501.69;;;8.08;44.11
40946;BME280;55635;50.264;11.918;2023-02-28T15:22:26;96490.72;;;7.86;44.85
40946;BME280;55635;50.264;11.918;2023-02-28T15:25:15;96500.81;;;7.63;45.83
40946;BME280;55635;50.264;11.918;2023-02-28T15:27:58;96489.19;;;7.46;45.95
40946;BME280;55635;50.264;11.918;2023-02-28T15:30:39;96500.97;;;7.15;46.65
40946;BME280;55635;50.264;11.918;2023-02-28T15:33:32;96506.47;;;7.22;46.15
40946;BME280;55635;50.264;11.918;2023-02-28T15:36:16;96490.13;;;7.18;46.83
40946;BME280;55635;50.264;11.918;2023-02-28T15:39:01;96494.78;;;6.78;47.36
40946;BME280;55635;50.264;11.918;2023-02-28T15:41:42;96495.75;;;6.86;47.82
40946;BME280;55635;50.264;11.918;2023-02-28T15:44:25;96499.09;;;6.60;48.05
40946;BME280;55635;50.264;11.918;2023-02-28T15:47:20;96499.94;;;6.50;48.65
40946;BME280;55635;50.264;11.918;2023-02-28T15:50:09;96498.78;;;6.05;49.32
40946;BME280;55635;50.264;11.918;2023-02-28T15:52:51;96505.25;;;6.01;49.43
40946;BME280;55635;50.264;11.918;2023-02-28T15:55:32;96509.31;;;6.05;49.50
40946;BME280;55635;50.264;11.918;2023-02-28T15:58:21;96512.06;;;6.03;48.94
40946;BME280;55635;50.264;11.918;2023-02-28T16:04:21;96516.69;;;5.81;49.89
40946;BME280;55635;50.264;11.918;2023-02-28T16:07:11;96515.13;;;5.69;50.99
40946;BME280;55635;50.264;11.918;2023-02-28T16:09:53;96498.53;;;5.38;50.78
40946;BME280;55635;50.264;11.918;2023-02-28T16:12:37;96527.50;;;5.27;51.57
40946;BME280;55635;50.264;11.918;2023-02-28T16:15:26;96533.13;;;5.13;51.80
40946;BME280;55635;50.264;11.918;2023-02-28T16:18:11;96524.91;;;5.06;52.21
40946;BME280;55635;50.264;11.918;2023-02-28T16:20:53;96538.31;;;4.82;52.25
40946;BME280;55635;50.264;11.918;2023-02-28T16:23:34;96537.97;;;4.76;52.79
40946;BME280;55635;50.264;11.918;2023-02-28T16:26:25;96539.69;;;4.66;52.73
40946;BME280;55635;50.264;11.918;2023-02-28T16:29:09;96543.16;;;4.66;53.30
40946;BME280;55635;50.264;11.918;2023-02-28T16:31:54;96541.38;;;4.67;53.02
40946;BME280;55635;50.264;11.918;2023-02-28T16:34:35;96543.66;;;4.60;53.79
40946;BME280;55635;50.264;11.918;2023-02-28T16:37:18;96549.38;;;4.33;53.86
40946;BME280;55635;50.264;11.918;2023-02-28T16:39:59;96542.28;;;4.02;55.00
40946;BME280;55635;50.264;11.918;2023-02-28T16:42:41;96545.97;;;4.11;55.10